Погода Гобабисна неделю

Омахеке, Намибия

16 - 22 июня
  • 16июня
    Сегодня
    +8°
    +26°
    Ясно и безоблачно
    ВремяПогодаТемператураВлажностьДавлениеВетер, м/сВероятность осадков
    02:00Ясно и безоблачно+11°C36 %647 мм3.0 м/с4 %
    05:00Ясно и безоблачно+9°C40 %646 мм3.1 м/с4 %
    08:00Ясно и безоблачно+8°C42 %646 мм3.3 м/с4 %
    11:00Ясно и безоблачно+21°C25 %650 мм7.4 м/с4 %
    14:00Ясно и безоблачно+25°C13 %649 мм5.7 м/с4 %
    17:00Ясно и безоблачно+24°C17 %648 мм4.8 м/с4 %
    20:00Ясно и безоблачно+18°C27 %647 мм3.3 м/с4 %
    23:00Ясно и безоблачно+15°C35 %647 мм3.8 м/с4 %
  • 17июня
    Понедельник
    +8°
    +27°
    Ясно и безоблачно
    ВремяПогодаТемператураВлажностьДавлениеВетер, м/сВероятность осадков
    02:00Ясно и безоблачно+11°C40 %645 мм3.3 м/с4 %
    05:00Ясно и безоблачно+10°C41 %645 мм3.9 м/с4 %
    08:00Ясно и безоблачно+9°C37 %646 мм4.2 м/с4 %
    11:00Ясно и безоблачно+23°C15 %650 мм7.0 м/с4 %
    14:00Ясно и безоблачно+26°C11 %648 мм6.3 м/с4 %
    17:00Ясно и безоблачно+27°C11 %648 мм3.7 м/с4 %
    20:00Ясно и безоблачно+18°C22 %646 мм2.6 м/с4 %
    23:00Ясно и безоблачно+15°C26 %646 мм2.8 м/с4 %
  • 18июня
    Вторник
    +9°
    +29°
    Ясно и безоблачно
    ВремяПогодаТемператураВлажностьДавлениеВетер, м/сВероятность осадков
    02:00Ясно и безоблачно+10°C32 %644 мм2.6 м/с4 %
    05:00Ясно и безоблачно+9°C38 %644 мм1.8 м/с4 %
    08:00Ясно и безоблачно+9°C40 %645 мм1.6 м/с4 %
    11:00Ясно и безоблачно+23°C21 %650 мм2.0 м/с4 %
    14:00Ясно и безоблачно+27°C13 %649 мм2.6 м/с4 %
    17:00Ясно и безоблачно+28°C12 %648 мм2.3 м/с4 %
    20:00Ясно и безоблачно+19°C20 %646 мм2.5 м/с4 %
    23:00Ясно и безоблачно+16°C26 %646 мм2.8 м/с4 %
  • 19июня
    Среда
    +11°
    +29°
    Ясно и безоблачно
    ВремяПогодаТемператураВлажностьДавлениеВетер, м/сВероятность осадков
    02:00Ясно и безоблачно+12°C31 %644 мм2.7 м/с4 %
    05:00Ясно и безоблачно+11°C38 %644 мм1.7 м/с4 %
    08:00Ясно и безоблачно+10°C37 %645 мм1.5 м/с4 %
    11:00Ясно и безоблачно+24°C21 %650 мм2.0 м/с4 %
    14:00Ясно и безоблачно+28°C13 %648 мм1.9 м/с4 %
    17:00Ясно и безоблачно+28°C13 %648 мм1.7 м/с4 %
    20:00Ясно и безоблачно+20°C22 %646 мм2.4 м/с4 %
    23:00Ясно и безоблачно+17°C27 %646 мм3.7 м/с4 %
  • 20июня
    Четверг
    +12°
    +29°
    Ясно и безоблачно
    ВремяПогодаТемператураВлажностьДавлениеВетер, м/сВероятность осадков
    02:00Ясно и безоблачно+13°C33 %645 мм3.3 м/с4 %
    05:00Ясно и безоблачно+12°C38 %645 мм3.2 м/с4 %
    08:00Ясно и безоблачно+12°C38 %646 мм3.7 м/с4 %
    11:00Ясно и безоблачно+25°C19 %650 мм5.8 м/с4 %
    14:00Ясно и безоблачно+28°C14 %649 мм5.0 м/с4 %
    17:00Ясно и безоблачно+28°C14 %648 мм4.8 м/с4 %
    20:00Ясно и безоблачно+21°C21 %647 мм3.3 м/с4 %
    23:00Ясно и безоблачно+18°C25 %647 мм4.2 м/с4 %
Мы используем cookies
Соглашаюсь